Time;durP1;ratioP1;P1;durP2;ratioP2;P2;SDS_P1;SDS_P2;PMS_P1;PMS_P2;Temp;Humidity;BMP_temperature;BMP_pressure;BME280_temperature;BME280_humidity;BME280_pressure;Samples;Min_cycle;Max_cycle;Signal;HPM_P1;HPM_P2
2023/01/22 00:01:30;;;;;;;1.33;1.27;;;;;;;;;;5080273;28;20404;-63
2023/01/22 00:03:58;;;;;;;0.90;0.65;;;;;;;;;;5083115;28;20062;-64
2023/01/22 00:06:27;;;;;;;1.10;1.00;;;;;;;;;;5084503;28;20105;-65
2023/01/22 00:08:55;;;;;;;0.52;0.52;;;;;;;;;;5079413;28;20526;-64
2023/01/22 00:11:23;;;;;;;0.63;0.63;;;;;;;;;;5084349;28;20044;-64
2023/01/22 00:13:52;;;;;;;0.68;0.68;;;;;;;;;;5089355;28;20123;-63
2023/01/22 00:16:21;;;;;;;0.47;0.47;;;;;;;;;;5075019;28;20049;-64
2023/01/22 00:18:50;;;;;;;1.25;1.25;;;;;;;;;;5086979;28;20143;-65
2023/01/22 00:21:18;;;;;;;3.33;0.88;;;;;;;;;;5084716;28;20400;-64
2023/01/22 00:23:46;;;;;;;0.55;0.55;;;;;;;;;;5090349;28;20040;-64
2023/01/22 00:26:16;;;;;;;0.85;0.85;;;;;;;;;;5083708;28;20082;-64
2023/01/22 00:28:45;;;;;;;0.85;0.68;;;;;;;;;;5082032;28;20044;-64
2023/01/22 00:31:14;;;;;;;1.02;0.90;;;;;;;;;;5076068;28;20047;-64
2023/01/22 00:33:45;;;;;;;3.67;1.13;;;;;;;;;;5084253;28;20668;-64
2023/01/22 00:36:15;;;;;;;0.98;0.93;;;;;;;;;;5090152;28;20044;-64
2023/01/22 00:38:43;;;;;;;2.72;1.05;;;;;;;;;;5081986;28;20050;-65
2023/01/22 00:41:12;;;;;;;0.30;0.30;;;;;;;;;;5088744;28;20051;-64
2023/01/22 00:43:41;;;;;;;4.95;1.35;;;;;;;;;;5084988;28;20491;-65
2023/01/22 00:46:10;;;;;;;1.83;1.73;;;;;;;;;;5079273;28;20057;-64
2023/01/22 00:48:39;;;;;;;0.60;0.60;;;;;;;;;;5084252;28;20057;-64
2023/01/22 00:51:09;;;;;;;1.40;0.90;;;;;;;;;;5087419;28;20049;-64
2023/01/22 00:53:40;;;;;;;1.30;0.75;;;;;;;;;;5085641;28;20040;-64
2023/01/22 00:56:08;;;;;;;1.27;0.88;;;;;;;;;;5081077;28;20040;-64
2023/01/22 00:58:36;;;;;;;7.25;1.48;;;;;;;;;;5091134;28;20056;-64
2023/01/22 01:01:05;;;;;;;2.60;0.95;;;;;;;;;;5080567;28;20052;-64
2023/01/22 01:03:36;;;;;;;1.98;0.50;;;;;;;;;;5091232;28;20097;-64
2023/01/22 01:06:05;;;;;;;0.63;0.63;;;;;;;;;;5090056;28;20174;-64
2023/01/22 01:08:36;;;;;;;2.38;1.10;;;;;;;;;;5092397;28;20055;-64
2023/01/22 01:11:05;;;;;;;5.45;2.08;;;;;;;;;;5086806;28;20415;-64
2023/01/22 01:13:36;;;;;;;1.25;0.52;;;;;;;;;;5090908;28;20044;-64
2023/01/22 01:16:06;;;;;;;0.60;0.60;;;;;;;;;;5092137;28;20439;-64
2023/01/22 01:18:35;;;;;;;0.88;0.77;;;;;;;;;;5089977;28;20044;-65
2023/01/22 01:21:06;;;;;;;1.40;1.30;;;;;;;;;;5089426;28;20048;-64
2023/01/22 01:23:36;;;;;;;6.40;1.63;;;;;;;;;;5084477;28;20048;-64
2023/01/22 01:26:07;;;;;;;2.28;1.67;;;;;;;;;;5080649;28;20572;-64
2023/01/22 01:28:36;;;;;;;1.50;1.38;;;;;;;;;;5081765;28;20624;-64
2023/01/22 01:31:05;;;;;;;2.50;0.93;;;;;;;;;;5081173;28;20052;-64
2023/01/22 01:33:33;;;;;;;0.90;0.90;;;;;;;;;;5076164;28;20052;-65
2023/01/22 01:36:02;;;;;;;2.42;1.50;;;;;;;;;;5078727;28;20036;-64
2023/01/22 01:38:31;;;;;;;0.43;0.40;;;;;;;;;;5086416;28;20499;-64
2023/01/22 01:41:00;;;;;;;1.45;0.93;;;;;;;;;;5083866;28;20047;-64
2023/01/22 01:43:29;;;;;;;1.73;1.63;;;;;;;;;;5082187;28;20052;-64
2023/01/22 01:45:58;;;;;;;1.48;1.27;;;;;;;;;;5079000;28;20404;-64
2023/01/22 01:48:29;;;;;;;2.28;1.95;;;;;;;;;;5083685;28;20121;-65
2023/01/22 01:51:00;;;;;;;1.77;1.52;;;;;;;;;;5083942;28;20059;-64
2023/01/22 01:53:29;;;;;;;3.40;2.25;;;;;;;;;;5076316;28;20054;-65
2023/01/22 01:55:58;;;;;;;3.17;1.40;;;;;;;;;;5080290;28;20131;-64
2023/01/22 01:58:29;;;;;;;1.30;0.90;;;;;;;;;;5079064;28;20134;-64
2023/01/22 02:01:01;;;;;;;0.70;0.70;;;;;;;;;;5080669;28;20048;-64
2023/01/22 02:03:29;;;;;;;1.83;1.73;;;;;;;;;;5082216;28;20131;-65
2023/01/22 02:05:58;;;;;;;1.38;0.73;;;;;;;;;;5075196;28;20554;-64
2023/01/22 02:08:26;;;;;;;5.82;1.20;;;;;;;;;;5080546;28;20052;-65
2023/01/22 02:10:55;;;;;;;2.05;0.43;;;;;;;;;;5082080;28;20086;-64
2023/01/22 02:13:26;;;;;;;1.05;1.02;;;;;;;;;;5083648;28;20052;-65
2023/01/22 02:15:55;;;;;;;1.20;1.10;;;;;;;;;;5079759;28;20081;-64
2023/01/22 02:18:24;;;;;;;0.77;0.77;;;;;;;;;;5088660;28;20101;-64
2023/01/22 02:20:55;;;;;;;1.25;0.45;;;;;;;;;;5087024;28;20040;-64
2023/01/22 02:23:24;;;;;;;2.17;1.17;;;;;;;;;;5083140;28;20115;-64
2023/01/22 02:25:52;;;;;;;1.50;0.80;;;;;;;;;;5081736;28;20386;-64
2023/01/22 02:28:21;;;;;;;0.28;0.28;;;;;;;;;;5081776;28;20048;-64
2023/01/22 02:30:49;;;;;;;0.40;0.40;;;;;;;;;;5082056;28;20381;-63
2023/01/22 02:33:18;;;;;;;2.58;1.20;;;;;;;;;;5080711;28;20050;-64
2023/01/22 02:35:46;;;;;;;0.63;0.63;;;;;;;;;;5083708;28;20508;-63
2023/01/22 02:38:16;;;;;;;0.55;0.55;;;;;;;;;;5087370;28;20068;-63
2023/01/22 02:40:48;;;;;;;1.40;0.80;;;;;;;;;;5086074;28;20040;-64
2023/01/22 02:43:17;;;;;;;0.75;0.75;;;;;;;;;;5079667;28;20075;-63
2023/01/22 02:45:45;;;;;;;0.57;0.57;;;;;;;;;;5082295;28;20044;-64
2023/01/22 02:48:13;;;;;;;1.73;1.00;;;;;;;;;;5082273;28;20488;-65
2023/01/22 02:50:43;;;;;;;0.93;0.93;;;;;;;;;;5081302;28;20040;-64
2023/01/22 02:53:12;;;;;;;3.05;2.30;;;;;;;;;;5086912;28;20113;-63
2023/01/22 02:55:43;;;;;;;3.35;1.40;;;;;;;;;;5080593;28;20081;-64
2023/01/22 02:58:12;;;;;;;0.90;0.68;;;;;;;;;;5083836;28;20052;-65
2023/01/22 03:00:40;;;;;;;5.88;1.67;;;;;;;;;;5088357;28;20120;-64
2023/01/22 03:03:14;;;;;;;2.13;0.88;;;;;;;;;;5081881;28;20131;-65
2023/01/22 03:05:48;;;;;;;2.90;1.40;;;;;;;;;;5086263;28;20123;-63
2023/01/22 03:08:17;;;;;;;1.33;1.23;;;;;;;;;;5086167;28;20131;-64
2023/01/22 03:10:46;;;;;;;0.93;0.93;;;;;;;;;;5085815;28;20431;-64
2023/01/22 03:21:42;;;;;;;1.48;1.08;;;;;;;;;;5089953;28;20047;-64
2023/01/22 03:24:11;;;;;;;1.60;1.05;;;;;;;;;;5083475;28;20138;-64
2023/01/22 03:26:40;;;;;;;0.65;0.65;;;;;;;;;;5083959;28;20055;-64
2023/01/22 03:29:08;;;;;;;0.82;0.82;;;;;;;;;;5080224;28;20056;-65
2023/01/22 03:31:37;;;;;;;1.35;1.25;;;;;;;;;;5080827;28;20044;-64
2023/01/22 03:34:05;;;;;;;0.57;0.57;;;;;;;;;;5085128;28;20040;-64
2023/01/22 03:36:33;;;;;;;1.40;1.13;;;;;;;;;;5081409;28;20056;-64
2023/01/22 03:39:02;;;;;;;3.35;2.05;;;;;;;;;;5079435;28;20036;-65
2023/01/22 03:41:30;;;;;;;1.27;1.13;;;;;;;;;;5080445;28;20051;-65
2023/01/22 03:44:02;;;;;;;4.53;0.45;;;;;;;;;;5086027;28;20060;-65
2023/01/22 03:46:31;;;;;;;0.93;0.93;;;;;;;;;;5081558;28;20048;-64
2023/01/22 03:48:59;;;;;;;0.47;0.47;;;;;;;;;;5089387;28;20049;-63
2023/01/22 03:51:27;;;;;;;0.32;0.32;;;;;;;;;;5074658;28;20068;-63
2023/01/22 03:53:56;;;;;;;1.42;1.33;;;;;;;;;;5084501;28;20504;-63
2023/01/22 03:56:24;;;;;;;0.40;0.40;;;;;;;;;;5086615;28;20496;-63
2023/01/22 03:58:52;;;;;;;2.03;1.25;;;;;;;;;;5083708;28;20071;-66
2023/01/22 04:01:23;;;;;;;0.55;0.55;;;;;;;;;;5087139;28;20040;-63
2023/01/22 04:03:51;;;;;;;3.35;1.38;;;;;;;;;;5084107;28;20089;-64
2023/01/22 04:06:20;;;;;;;0.70;0.70;;;;;;;;;;5085672;28;20048;-63
2023/01/22 04:08:48;;;;;;;2.15;1.55;;;;;;;;;;5084908;28;20048;-65
2023/01/22 04:11:17;;;;;;;0.20;0.20;;;;;;;;;;5081413;28;20051;-64
2023/01/22 04:13:45;;;;;;;2.40;1.05;;;;;;;;;;5086872;28;20044;-64
2023/01/22 04:16:14;;;;;;;3.08;0.80;;;;;;;;;;5083310;28;20495;-63
2023/01/22 04:18:44;;;;;;;1.02;1.00;;;;;;;;;;5084213;28;20488;-64
2023/01/22 04:21:12;;;;;;;9.80;0.98;;;;;;;;;;5080270;28;20044;-64
2023/01/22 04:23:41;;;;;;;0.65;0.65;;;;;;;;;;5082522;28;20558;-65
2023/01/22 04:26:09;;;;;;;2.70;1.35;;;;;;;;;;5088748;28;20471;-64
2023/01/22 04:28:37;;;;;;;1.50;1.40;;;;;;;;;;5085680;28;20040;-64
2023/01/22 04:31:07;;;;;;;0.70;0.70;;;;;;;;;;5080757;28;20054;-65
2023/01/22 04:33:36;;;;;;;3.25;1.15;;;;;;;;;;5087399;28;20089;-64
2023/01/22 04:36:05;;;;;;;2.08;0.57;;;;;;;;;;5086720;28;20040;-65
2023/01/22 04:38:34;;;;;;;0.77;0.77;;;;;;;;;;5077472;28;20491;-64
2023/01/22 04:41:02;;;;;;;1.15;1.10;;;;;;;;;;5083852;28;20042;-66
2023/01/22 04:43:30;;;;;;;0.90;0.85;;;;;;;;;;5076207;28;20045;-64
2023/01/22 04:45:58;;;;;;;1.50;1.02;;;;;;;;;;5082578;28;20512;-65
2023/01/22 04:48:27;;;;;;;0.90;0.80;;;;;;;;;;5079840;28;20090;-65
2023/01/22 04:50:55;;;;;;;1.67;1.58;;;;;;;;;;5081358;28;20042;-64
2023/01/22 04:53:25;;;;;;;2.17;0.50;;;;;;;;;;5083701;28;20511;-64
2023/01/22 04:55:53;;;;;;;0.70;0.70;;;;;;;;;;5086425;28;20040;-65
2023/01/22 04:58:21;;;;;;;4.88;1.30;;;;;;;;;;5087415;28;20055;-64
2023/01/22 05:00:50;;;;;;;0.88;0.88;;;;;;;;;;5081489;28;20051;-64
2023/01/22 05:03:18;;;;;;;2.45;0.93;;;;;;;;;;5083738;28;20390;-64
2023/01/22 05:05:46;;;;;;;1.30;1.23;;;;;;;;;;5082863;28;20048;-64
2023/01/22 05:08:14;;;;;;;2.75;0.75;;;;;;;;;;5088755;28;20051;-66
2023/01/22 05:10:44;;;;;;;4.43;1.40;;;;;;;;;;5081134;28;20396;-64
2023/01/22 05:13:12;;;;;;;1.25;0.68;;;;;;;;;;5086550;28;20063;-64
2023/01/22 05:15:40;;;;;;;0.98;0.50;;;;;;;;;;5088148;28;20063;-64
2023/01/22 05:18:09;;;;;;;0.75;0.52;;;;;;;;;;5085470;28;20048;-65
2023/01/22 05:20:37;;;;;;;1.60;0.90;;;;;;;;;;5085678;28;20097;-65
2023/01/22 05:23:05;;;;;;;3.05;1.60;;;;;;;;;;5081562;28;20051;-65
2023/01/22 05:25:33;;;;;;;2.55;0.30;;;;;;;;;;5086041;28;20051;-64
2023/01/22 05:28:03;;;;;;;1.08;0.95;;;;;;;;;;5086448;28;20048;-65
2023/01/22 05:30:31;;;;;;;0.82;0.82;;;;;;;;;;5082227;28;20050;-64
2023/01/22 05:32:59;;;;;;;3.33;1.27;;;;;;;;;;5084183;28;20084;-65
2023/01/22 05:35:28;;;;;;;0.85;0.65;;;;;;;;;;5075404;28;20048;-63
2023/01/22 05:37:56;;;;;;;0.73;0.73;;;;;;;;;;5071456;28;20051;-65
2023/01/22 05:40:25;;;;;;;1.05;1.00;;;;;;;;;;5077137;28;20040;-65
2023/01/22 05:42:53;;;;;;;1.15;1.10;;;;;;;;;;5081910;28;20067;-65
2023/01/22 05:45:23;;;;;;;0.77;0.77;;;;;;;;;;5081864;28;20044;-65
2023/01/22 05:47:52;;;;;;;1.33;1.23;;;;;;;;;;5073587;28;20052;-64
2023/01/22 05:50:22;;;;;;;0.85;0.85;;;;;;;;;;5083443;28;20048;-64
2023/01/22 05:52:54;;;;;;;4.10;0.77;;;;;;;;;;5074465;28;20050;-65
2023/01/22 05:55:22;;;;;;;0.70;0.70;;;;;;;;;;5085196;28;20066;-65
2023/01/22 05:57:51;;;;;;;0.50;0.50;;;;;;;;;;5078031;28;20043;-64
2023/01/22 06:00:19;;;;;;;2.72;0.80;;;;;;;;;;5071580;28;20602;-64
2023/01/22 06:02:49;;;;;;;5.32;1.27;;;;;;;;;;5081491;28;20044;-64
2023/01/22 06:05:18;;;;;;;2.20;1.00;;;;;;;;;;5085683;28;20052;-65
2023/01/22 06:07:46;;;;;;;0.43;0.43;;;;;;;;;;5079449;28;20052;-64
2023/01/22 06:10:14;;;;;;;5.50;1.30;;;;;;;;;;5083523;28;20071;-63
2023/01/22 06:12:43;;;;;;;1.17;1.10;;;;;;;;;;5081743;28;20072;-64
2023/01/22 06:15:11;;;;;;;2.67;1.15;;;;;;;;;;5081347;28;20063;-64
2023/01/22 06:17:40;;;;;;;1.65;1.30;;;;;;;;;;5082119;28;20059;-65
2023/01/22 06:20:10;;;;;;;1.38;0.70;;;;;;;;;;5089646;28;20468;-63
2023/01/22 06:22:39;;;;;;;1.00;0.82;;;;;;;;;;5080188;28;20048;-64
2023/01/22 06:25:08;;;;;;;0.70;0.70;;;;;;;;;;5088124;28;20107;-64
2023/01/22 06:27:36;;;;;;;4.60;0.82;;;;;;;;;;5079008;28;20051;-64
2023/01/22 06:30:05;;;;;;;1.23;0.60;;;;;;;;;;5075940;28;20047;-65
2023/01/22 06:32:33;;;;;;;2.00;1.40;;;;;;;;;;5082027;28;20052;-64
2023/01/22 06:35:01;;;;;;;1.10;0.90;;;;;;;;;;5081113;28;20484;-64
2023/01/22 06:37:31;;;;;;;0.88;0.88;;;;;;;;;;5087505;28;20052;-63
2023/01/22 06:39:59;;;;;;;2.88;0.85;;;;;;;;;;5082128;28;20051;-64
2023/01/22 06:42:27;;;;;;;4.93;1.58;;;;;;;;;;5082755;28;20044;-64
2023/01/22 06:44:55;;;;;;;0.45;0.45;;;;;;;;;;5082678;28;20174;-62
2023/01/22 06:47:24;;;;;;;1.60;1.25;;;;;;;;;;5086800;28;20055;-63
2023/01/22 06:49:52;;;;;;;0.80;0.80;;;;;;;;;;5077193;28;20048;-62
2023/01/22 06:52:20;;;;;;;0.77;0.77;;;;;;;;;;5087102;28;20056;-64
2023/01/22 06:54:50;;;;;;;1.23;1.17;;;;;;;;;;5079969;28;20067;-64
2023/01/22 06:57:18;;;;;;;0.65;0.63;;;;;;;;;;5072843;28;20051;-64
2023/01/22 06:59:46;;;;;;;0.45;0.45;;;;;;;;;;5082992;28;20044;-64
2023/01/22 07:02:16;;;;;;;2.53;0.90;;;;;;;;;;5089158;28;20059;-64
2023/01/22 07:04:45;;;;;;;0.20;0.20;;;;;;;;;;5081574;28;20055;-63
2023/01/22 07:07:13;;;;;;;3.13;0.65;;;;;;;;;;5086025;28;20503;-64
2023/01/22 07:09:41;;;;;;;2.03;1.45;;;;;;;;;;5081561;28;20047;-63
2023/01/22 07:12:11;;;;;;;0.55;0.55;;;;;;;;;;5087173;28;20040;-63
2023/01/22 07:14:40;;;;;;;1.75;0.77;;;;;;;;;;5083161;28;20048;-64
2023/01/22 07:17:08;;;;;;;1.50;0.68;;;;;;;;;;5081292;28;20124;-64
2023/01/22 07:19:36;;;;;;;2.53;0.73;;;;;;;;;;5079243;28;20123;-63
2023/01/22 07:22:04;;;;;;;0.55;0.50;;;;;;;;;;5082651;28;20062;-63
2023/01/22 07:24:33;;;;;;;1.50;0.95;;;;;;;;;;5083464;28;20036;-63
2023/01/22 07:27:01;;;;;;;1.02;0.98;;;;;;;;;;5087375;28;20045;-63
2023/01/22 07:29:31;;;;;;;0.20;0.20;;;;;;;;;;5078458;28;20080;-63
2023/01/22 07:31:59;;;;;;;1.45;1.30;;;;;;;;;;5094823;28;20051;-63
2023/01/22 07:34:28;;;;;;;2.67;1.25;;;;;;;;;;5095714;28;20055;-63
2023/01/22 07:36:56;;;;;;;0.30;0.30;;;;;;;;;;5088078;28;20712;-63
2023/01/22 07:39:24;;;;;;;1.95;0.73;;;;;;;;;;5079929;28;20044;-64
2023/01/22 07:41:52;;;;;;;0.85;0.73;;;;;;;;;;5085965;28;20061;-63
2023/01/22 07:44:21;;;;;;;2.50;1.88;;;;;;;;;;5080431;28;20044;-63
2023/01/22 07:46:50;;;;;;;2.67;1.08;;;;;;;;;;5081532;28;20051;-65
2023/01/22 07:49:19;;;;;;;0.52;0.30;;;;;;;;;;5082496;28;20493;-65
2023/01/22 07:51:47;;;;;;;1.30;1.23;;;;;;;;;;5086220;28;21043;-64
2023/01/22 07:54:15;;;;;;;1.00;1.00;;;;;;;;;;5089170;28;20056;-63
2023/01/22 07:56:45;;;;;;;2.15;1.58;;;;;;;;;;5081044;28;20041;-63
2023/01/22 07:59:13;;;;;;;1.25;1.02;;;;;;;;;;5088563;28;20045;-63
2023/01/22 08:01:42;;;;;;;1.35;1.35;;;;;;;;;;5078046;28;20048;-63
2023/01/22 08:04:11;;;;;;;0.82;0.82;;;;;;;;;;5084302;28;20052;-63
2023/01/22 08:06:40;;;;;;;0.88;0.82;;;;;;;;;;5081602;28;20383;-63
2023/01/22 08:09:08;;;;;;;3.00;1.00;;;;;;;;;;5077185;28;20056;-63
2023/01/22 08:11:36;;;;;;;1.15;0.52;;;;;;;;;;5090337;28;20124;-64
2023/01/22 08:14:04;;;;;;;1.67;1.30;;;;;;;;;;5077761;28;20044;-63
2023/01/22 08:16:34;;;;;;;3.80;1.75;;;;;;;;;;5079058;28;20055;-63
2023/01/22 08:19:02;;;;;;;1.33;1.15;;;;;;;;;;5083298;28;20044;-63
2023/01/22 08:21:32;;;;;;;0.20;0.20;;;;;;;;;;5086568;28;20511;-62
2023/01/22 08:24:01;;;;;;;2.05;0.85;;;;;;;;;;5081207;28;20302;-64
2023/01/22 08:26:29;;;;;;;1.48;1.02;;;;;;;;;;5083507;28;20040;-65
2023/01/22 08:28:57;;;;;;;2.15;1.17;;;;;;;;;;5087707;28;20050;-65
2023/01/22 08:31:25;;;;;;;0.25;0.25;;;;;;;;;;5080875;28;20071;-63
2023/01/22 08:33:55;;;;;;;3.80;1.30;;;;;;;;;;5077643;28;20042;-63
2023/01/22 08:36:24;;;;;;;0.70;0.47;;;;;;;;;;5083151;28;20086;-65
2023/01/22 08:38:53;;;;;;;1.30;0.95;;;;;;;;;;5085390;28;20492;-64
2023/01/22 08:41:22;;;;;;;0.73;0.73;;;;;;;;;;5074887;28;20143;-64
2023/01/22 08:43:51;;;;;;;1.52;0.82;;;;;;;;;;5081955;28;20044;-63
2023/01/22 08:46:20;;;;;;;1.25;1.08;;;;;;;;;;5081929;28;22269;-65
2023/01/22 08:48:49;;;;;;;2.60;1.42;;;;;;;;;;5073231;28;20056;-64
2023/01/22 08:51:17;;;;;;;0.43;0.43;;;;;;;;;;5073988;28;20503;-64
2023/01/22 08:53:46;;;;;;;0.60;0.60;;;;;;;;;;5075722;28;20056;-63
2023/01/22 08:56:16;;;;;;;0.85;0.85;;;;;;;;;;5076918;28;20048;-63
2023/01/22 08:58:44;;;;;;;0.60;0.60;;;;;;;;;;5079233;28;20393;-64
2023/01/22 09:01:16;;;;;;;1.67;1.05;;;;;;;;;;5088369;28;20080;-63
2023/01/22 09:03:44;;;;;;;1.33;0.90;;;;;;;;;;5076487;28;20052;-63
2023/01/22 09:06:13;;;;;;;1.48;1.38;;;;;;;;;;5075978;28;20051;-65
2023/01/22 09:08:41;;;;;;;0.60;0.60;;;;;;;;;;5077693;28;20048;-60
2023/01/22 09:11:10;;;;;;;1.65;0.93;;;;;;;;;;5074985;28;20048;-63
2023/01/22 09:13:39;;;;;;;1.27;1.20;;;;;;;;;;5088149;28;20044;-63
2023/01/22 09:16:09;;;;;;;0.65;0.60;;;;;;;;;;5073577;28;20528;-64
2023/01/22 09:18:38;;;;;;;1.45;0.85;;;;;;;;;;5082195;28;20500;-63
2023/01/22 09:21:08;;;;;;;4.72;1.85;;;;;;;;;;5082965;28;20291;-60
2023/01/22 09:23:36;;;;;;;0.68;0.40;;;;;;;;;;5080158;28;20079;-61
2023/01/22 09:26:04;;;;;;;3.70;1.23;;;;;;;;;;5085537;28;20040;-61
2023/01/22 09:28:32;;;;;;;0.20;0.20;;;;;;;;;;5084037;28;20052;-60
2023/01/22 09:31:04;;;;;;;4.95;2.72;;;;;;;;;;5085009;28;20388;-60
2023/01/22 09:33:33;;;;;;;2.33;1.65;;;;;;;;;;5079837;28;20047;-61
2023/01/22 09:36:08;;;;;;;0.65;0.32;;;;;;;;;;5087519;28;20052;-60
2023/01/22 09:38:37;;;;;;;0.80;0.75;;;;;;;;;;5091762;28;20059;-59
2023/01/22 09:41:08;;;;;;;0.68;0.68;;;;;;;;;;5078064;28;20051;-60
2023/01/22 09:43:38;;;;;;;3.08;1.83;;;;;;;;;;5077445;28;20081;-59
2023/01/22 09:46:17;;;;;;;1.65;1.42;;;;;;;;;;5078354;28;20139;-58
2023/01/22 09:48:48;;;;;;;0.65;0.65;;;;;;;;;;5072805;28;20799;-58
2023/01/22 09:51:18;;;;;;;2.83;1.20;;;;;;;;;;5074557;28;20052;-60
2023/01/22 09:53:50;;;;;;;2.17;0.63;;;;;;;;;;5068339;28;20548;-59
2023/01/22 09:56:20;;;;;;;0.40;0.40;;;;;;;;;;5084286;28;20121;-60
2023/01/22 09:58:50;;;;;;;4.47;2.08;;;;;;;;;;5073211;28;20059;-59
2023/01/22 10:01:20;;;;;;;3.05;2.13;;;;;;;;;;5071163;28;20046;-62
2023/01/22 10:03:51;;;;;;;4.80;1.25;;;;;;;;;;5097526;28;20486;-61
2023/01/22 10:06:21;;;;;;;1.15;1.15;;;;;;;;;;5093325;28;20139;-61
2023/01/22 10:08:53;;;;;;;0.93;0.70;;;;;;;;;;5087428;28;20048;-60
2023/01/22 10:11:21;;;;;;;0.80;0.80;;;;;;;;;;5085414;28;20048;-60
2023/01/22 10:13:51;;;;;;;2.17;1.33;;;;;;;;;;5078985;28;20040;-61
2023/01/22 10:16:21;;;;;;;1.75;1.38;;;;;;;;;;5080693;28;20066;-60
2023/01/22 10:18:52;;;;;;;1.38;1.13;;;;;;;;;;5085763;28;20074;-61
2023/01/22 10:21:25;;;;;;;1.45;0.82;;;;;;;;;;5075883;28;20161;-61
2023/01/22 10:23:56;;;;;;;0.90;0.90;;;;;;;;;;5080361;28;20095;-62
2023/01/22 10:26:29;;;;;;;1.35;0.52;;;;;;;;;;5090141;28;20052;-63
2023/01/22 10:28:59;;;;;;;0.43;0.43;;;;;;;;;;5079282;28;20506;-60
2023/01/22 10:31:32;;;;;;;0.73;0.73;;;;;;;;;;5076399;28;20044;-60
2023/01/22 10:34:01;;;;;;;5.20;2.17;;;;;;;;;;5085417;28;20044;-60
2023/01/22 10:36:30;;;;;;;1.70;1.10;;;;;;;;;;5085702;28;20058;-60
2023/01/22 10:39:10;;;;;;;1.27;1.17;;;;;;;;;;5082777;28;20040;-60
2023/01/22 10:41:38;;;;;;;3.70;1.38;;;;;;;;;;5086848;28;20538;-61
2023/01/22 10:44:10;;;;;;;3.78;2.38;;;;;;;;;;5084083;28;20047;-60
2023/01/22 10:46:40;;;;;;;10.77;1.98;;;;;;;;;;5082565;28;20392;-60
2023/01/22 10:49:14;;;;;;;0.40;0.40;;;;;;;;;;5078395;28;20051;-60
2023/01/22 10:51:44;;;;;;;3.17;1.92;;;;;;;;;;5077257;28;20133;-62
2023/01/22 10:54:20;;;;;;;5.50;3.72;;;;;;;;;;5083628;28;20056;-60
2023/01/22 10:56:49;;;;;;;4.78;1.40;;;;;;;;;;5082576;28;20052;-60
2023/01/22 10:59:22;;;;;;;3.25;1.63;;;;;;;;;;5088719;28;20055;-60
2023/01/22 11:01:56;;;;;;;4.78;2.55;;;;;;;;;;5089572;28;20510;-60
2023/01/22 11:04:25;;;;;;;;;;;;;;;;;;5089798;28;20052;-60
2023/01/22 11:06:55;;;;;;;0.93;0.85;;;;;;;;;;5083536;28;19942;-63
2023/01/22 11:09:25;;;;;;;2.63;2.08;;;;;;;;;;5084655;28;20134;-60
2023/01/22 11:11:57;;;;;;;1.20;1.13;;;;;;;;;;5086989;28;20135;-60
2023/01/22 11:14:28;;;;;;;5.55;3.03;;;;;;;;;;5087174;28;20389;-60
2023/01/22 11:16:59;;;;;;;4.03;2.55;;;;;;;;;;5099301;28;20092;-60
2023/01/22 11:19:29;;;;;;;4.07;1.98;;;;;;;;;;5085200;28;20045;-60
2023/01/22 11:22:07;;;;;;;9.25;2.30;;;;;;;;;;5082690;28;20827;-60
2023/01/22 11:24:39;;;;;;;5.07;1.83;;;;;;;;;;5088866;28;20040;-60
2023/01/22 11:27:15;;;;;;;3.38;1.25;;;;;;;;;;5089471;28;20538;-60
2023/01/22 11:29:56;;;;;;;4.88;2.33;;;;;;;;;;5080006;28;20094;-60
2023/01/22 11:32:36;;;;;;;7.63;1.80;;;;;;;;;;5089874;28;20051;-59
2023/01/22 11:35:11;;;;;;;1.27;1.17;;;;;;;;;;5092815;28;20055;-60
2023/01/22 11:37:45;;;;;;;1.98;0.88;;;;;;;;;;5079731;28;20055;-59
2023/01/22 11:40:14;;;;;;;;;;;;;;;;;;5084080;28;20048;-59
2023/01/22 11:42:47;;;;;;;2.55;0.98;;;;;;;;;;5089878;28;20379;-59
2023/01/22 11:45:24;;;;;;;1.70;1.23;;;;;;;;;;5077994;28;20060;-59
2023/01/22 11:48:04;;;;;;;4.85;1.38;;;;;;;;;;5076354;28;20059;-59
2023/01/22 11:50:37;;;;;;;3.63;2.40;;;;;;;;;;5079180;28;20052;-59
2023/01/22 11:53:14;;;;;;;4.78;1.85;;;;;;;;;;5081465;28;20130;-67
2023/01/22 11:55:53;;;;;;;5.32;2.03;;;;;;;;;;5097331;28;20040;-68
2023/01/22 11:58:26;;;;;;;3.90;2.90;;;;;;;;;;5090665;28;20138;-67
2023/01/22 12:00:58;;;;;;;3.60;1.17;;;;;;;;;;5092152;28;20552;-67
2023/01/22 12:03:41;;;;;;;2.03;1.73;;;;;;;;;;5089866;28;20044;-67
2023/01/22 12:06:17;;;;;;;1.25;1.15;;;;;;;;;;5096041;28;20054;-69
2023/01/22 12:08:49;;;;;;;1.10;1.00;;;;;;;;;;5075803;28;20048;-68
2023/01/22 12:11:25;;;;;;;5.47;1.25;;;;;;;;;;5076739;28;20506;-70
2023/01/22 12:14:10;;;;;;;2.85;2.03;;;;;;;;;;5079228;28;20491;-67
2023/01/22 12:16:41;;;;;;;1.38;1.27;;;;;;;;;;5081878;28;20048;-68
2023/01/22 12:19:25;;;;;;;2.78;1.05;;;;;;;;;;5073807;28;20045;-67
2023/01/22 12:21:58;;;;;;;1.75;1.23;;;;;;;;;;5075752;28;20142;-68
2023/01/22 12:24:29;;;;;;;3.88;1.85;;;;;;;;;;5076526;28;20052;-68
2023/01/22 12:27:00;;;;;;;3.35;1.23;;;;;;;;;;5072754;28;20052;-69
2023/01/22 12:29:31;;;;;;;2.05;0.63;;;;;;;;;;5072492;28;20048;-68
2023/01/22 12:32:03;;;;;;;1.65;1.23;;;;;;;;;;5091274;28;20411;-69
2023/01/22 12:34:34;;;;;;;3.60;0.93;;;;;;;;;;5089584;28;20054;-68
2023/01/22 12:37:05;;;;;;;3.20;0.93;;;;;;;;;;5095180;28;20450;-68
2023/01/22 12:39:35;;;;;;;1.55;1.45;;;;;;;;;;5092817;28;20373;-68
2023/01/22 12:42:09;;;;;;;2.40;1.67;;;;;;;;;;5082861;28;20048;-68
2023/01/22 12:44:42;;;;;;;0.75;0.60;;;;;;;;;;5085868;28;20044;-68
2023/01/22 12:47:15;;;;;;;3.42;1.90;;;;;;;;;;5090054;28;20055;-68
2023/01/22 12:49:47;;;;;;;5.78;1.45;;;;;;;;;;5085989;28;20062;-68
2023/01/22 12:52:30;;;;;;;5.13;1.95;;;;;;;;;;5088251;28;20079;-73
2023/01/22 12:54:59;;;;;;;0.95;0.93;;;;;;;;;;5079996;28;20048;-72
2023/01/22 12:57:37;;;;;;;5.57;1.48;;;;;;;;;;5086450;28;20403;-78
2023/01/22 13:00:23;;;;;;;2.17;1.73;;;;;;;;;;5090819;28;20482;-73
2023/01/22 13:02:52;;;;;;;0.68;0.40;;;;;;;;;;5089272;28;20051;-69
2023/01/22 13:05:23;;;;;;;4.65;2.17;;;;;;;;;;5085176;28;20049;-69
2023/01/22 13:08:02;;;;;;;1.90;1.35;;;;;;;;;;5086400;28;20496;-69
2023/01/22 13:10:31;;;;;;;3.88;1.77;;;;;;;;;;5092818;28;20703;-67
2023/01/22 13:13:01;;;;;;;1.23;1.13;;;;;;;;;;5082574;28;20043;-69
2023/01/22 13:15:31;;;;;;;2.50;1.20;;;;;;;;;;5089029;28;20049;-68
2023/01/22 13:18:02;;;;;;;8.85;1.60;;;;;;;;;;5084903;28;20153;-69
2023/01/22 13:20:35;;;;;;;3.40;1.85;;;;;;;;;;5086368;28;20044;-70
2023/01/22 13:23:05;;;;;;;2.60;1.23;;;;;;;;;;5084223;28;20113;-68
2023/01/22 13:25:34;;;;;;;3.28;1.63;;;;;;;;;;5087219;28;20040;-70
2023/01/22 13:28:02;;;;;;;3.63;2.80;;;;;;;;;;5088973;28;20048;-69
2023/01/22 13:30:31;;;;;;;3.17;1.25;;;;;;;;;;5086643;28;20048;-69
2023/01/22 13:33:04;;;;;;;3.90;2.40;;;;;;;;;;5089513;28;20063;-69
2023/01/22 13:35:35;;;;;;;5.40;1.88;;;;;;;;;;5090679;28;20040;-69
2023/01/22 13:38:03;;;;;;;0.75;0.75;;;;;;;;;;5087248;28;20061;-69
2023/01/22 13:40:33;;;;;;;3.28;1.02;;;;;;;;;;5090334;28;20036;-73
2023/01/22 13:43:15;;;;;;;3.65;2.03;;;;;;;;;;5087054;28;20510;-73
2023/01/22 13:45:44;;;;;;;10.18;2.25;;;;;;;;;;5081625;28;20036;-71
2023/01/22 13:48:15;;;;;;;1.38;0.80;;;;;;;;;;5079084;28;20052;-69
2023/01/22 13:50:46;;;;;;;5.25;2.55;;;;;;;;;;5090281;28;20060;-69
2023/01/22 13:53:22;;;;;;;2.58;1.60;;;;;;;;;;5089417;28;20480;-70
2023/01/22 13:55:52;;;;;;;7.38;1.95;;;;;;;;;;5090166;28;20047;-68
2023/01/22 13:58:40;;;;;;;2.10;1.88;;;;;;;;;;5076135;28;20510;-69
2023/01/22 14:01:27;;;;;;;2.13;1.30;;;;;;;;;;5080780;28;20056;-69
2023/01/22 14:03:59;;;;;;;7.03;3.30;;;;;;;;;;5087411;28;20048;-68
2023/01/22 14:06:27;;;;;;;1.08;1.02;;;;;;;;;;5081354;28;20117;-69
2023/01/22 14:08:57;;;;;;;4.95;2.33;;;;;;;;;;5085114;28;20585;-69
2023/01/22 14:11:37;;;;;;;4.13;2.15;;;;;;;;;;5083577;28;20072;-70
2023/01/22 14:14:14;;;;;;;2.88;2.03;;;;;;;;;;5080878;28;20125;-69
2023/01/22 14:16:43;;;;;;;3.13;1.33;;;;;;;;;;5079289;28;20052;-68
2023/01/22 14:19:11;;;;;;;2.20;1.33;;;;;;;;;;5089144;28;20067;-66
2023/01/22 14:21:39;;;;;;;3.15;1.58;;;;;;;;;;5084993;28;20036;-67
2023/01/22 14:24:08;;;;;;;4.53;2.83;;;;;;;;;;5089196;28;20047;-66
2023/01/22 14:26:38;;;;;;;1.60;0.95;;;;;;;;;;5084291;28;20098;-66
2023/01/22 14:29:07;;;;;;;1.65;1.40;;;;;;;;;;5083909;28;20142;-66
2023/01/22 14:31:35;;;;;;;6.05;2.45;;;;;;;;;;5085542;28;20046;-67
2023/01/22 14:34:04;;;;;;;7.53;2.17;;;;;;;;;;5089963;28;20051;-66
2023/01/22 14:36:32;;;;;;;4.05;1.67;;;;;;;;;;5100366;28;20048;-66
2023/01/22 14:39:01;;;;;;;3.25;2.25;;;;;;;;;;5091806;28;20040;-65
2023/01/22 14:41:29;;;;;;;4.10;2.45;;;;;;;;;;5089756;28;20447;-66
2023/01/22 14:43:59;;;;;;;2.83;2.10;;;;;;;;;;5091325;28;20489;-66
2023/01/22 14:46:27;;;;;;;2.92;1.58;;;;;;;;;;5088165;28;20048;-66
2023/01/22 14:48:56;;;;;;;2.10;1.23;;;;;;;;;;5082275;28;20047;-66
2023/01/22 14:51:24;;;;;;;3.25;2.90;;;;;;;;;;5077931;28;20051;-66
2023/01/22 14:53:53;;;;;;;2.63;0.75;;;;;;;;;;5070478;28;20436;-66
2023/01/22 14:56:21;;;;;;;1.10;1.02;;;;;;;;;;5068286;28;20048;-66
2023/01/22 14:58:50;;;;;;;5.57;2.00;;;;;;;;;;5069907;28;20044;-65
2023/01/22 15:01:21;;;;;;;5.22;2.33;;;;;;;;;;5073743;28;20051;-66
2023/01/22 15:03:50;;;;;;;2.17;1.55;;;;;;;;;;5060281;28;20094;-66
2023/01/22 15:06:18;;;;;;;2.63;2.08;;;;;;;;;;5070959;28;20102;-66
2023/01/22 15:08:46;;;;;;;2.85;1.50;;;;;;;;;;5066962;28;20542;-67